createdAt,value
2022-12-01T00:01:24.891Z,21.67
2022-12-01T00:03:52.148Z,20.38
2022-12-01T00:06:21.330Z,21.08
2022-12-01T00:09:09.051Z,21.42
2022-12-01T00:11:37.840Z,20.00
2022-12-01T00:14:05.994Z,20.35
2022-12-01T00:16:34.084Z,19.98
2022-12-01T00:19:01.450Z,20.40
2022-12-01T00:21:28.697Z,20.55
2022-12-01T00:23:57.524Z,20.35
2022-12-01T00:26:25.658Z,19.98
2022-12-01T00:28:54.928Z,20.67
2022-12-01T00:31:22.334Z,19.88
2022-12-01T00:33:50.422Z,19.25
2022-12-01T00:36:17.660Z,21.58
2022-12-01T00:38:45.699Z,21.40
2022-12-01T00:41:13.007Z,21.88
2022-12-01T00:43:40.355Z,22.40
2022-12-01T00:46:08.156Z,23.13
2022-12-01T00:48:35.520Z,21.05
2022-12-01T00:51:03.204Z,21.60
2022-12-01T00:53:30.782Z,21.30
2022-12-01T00:55:58.058Z,22.13
2022-12-01T00:58:25.623Z,25.75
2022-12-01T01:01:01.224Z,27.55
2022-12-01T01:03:29.947Z,27.40
2022-12-01T01:06:03.140Z,27.55
2022-12-01T01:08:30.428Z,30.00
2022-12-01T01:10:59.411Z,26.13
2022-12-01T01:13:26.852Z,28.77
2022-12-01T01:16:00.377Z,26.67
2022-12-01T01:18:28.776Z,27.33
2022-12-01T01:21:04.780Z,25.20
2022-12-01T01:23:32.243Z,26.38
2022-12-01T01:26:04.813Z,28.77
2022-12-01T01:28:32.848Z,26.40
2022-12-01T01:31:00.437Z,27.75
2022-12-01T01:33:27.772Z,30.92
2022-12-01T01:35:59.120Z,27.33
2022-12-01T01:38:27.135Z,27.13
2022-12-01T01:40:54.700Z,28.73
2022-12-01T01:44:03.704Z,28.50
2022-12-01T01:46:35.264Z,25.63
2022-12-01T01:49:11.372Z,26.15
2022-12-01T01:51:46.718Z,25.10
2022-12-01T01:54:42.494Z,28.15
2022-12-01T01:57:11.936Z,27.08
2022-12-01T01:59:45.015Z,28.13
2022-12-01T02:02:13.168Z,28.23
2022-12-01T02:04:48.739Z,26.45
2022-12-01T02:07:18.479Z,27.83
2022-12-01T02:09:46.085Z,28.95
2022-12-01T02:12:38.275Z,28.52
2022-12-01T02:15:37.923Z,27.55
2022-12-01T02:18:22.195Z,27.88
2022-12-01T02:20:58.277Z,28.45
2022-12-01T02:23:42.405Z,30.50
2022-12-01T02:26:39.325Z,32.83
2022-12-01T02:29:28.661Z,32.33
2022-12-01T02:32:11.765Z,32.28
2022-12-01T02:34:56.243Z,33.28
2022-12-01T02:37:35.439Z,32.90
2022-12-01T02:40:37.760Z,30.90
2022-12-01T02:43:27.663Z,33.60
2022-12-01T02:46:09.640Z,32.10
2022-12-01T02:48:40.035Z,34.50
2022-12-01T02:51:25.126Z,32.53
2022-12-01T02:56:23.112Z,34.00
2022-12-01T02:58:50.572Z,34.17
2022-12-01T03:01:50.505Z,34.22
2022-12-01T03:04:44.548Z,31.77
2022-12-01T03:07:39.259Z,31.52
2022-12-01T03:10:28.076Z,31.30
2022-12-01T03:13:01.275Z,33.83
2022-12-01T03:15:51.332Z,33.35
2022-12-01T03:18:36.986Z,34.35
2022-12-01T03:21:16.602Z,31.88
2022-12-01T03:23:50.355Z,28.67
2022-12-01T03:26:21.914Z,31.10
2022-12-01T03:28:58.951Z,35.15
2022-12-01T03:31:33.259Z,33.35
2022-12-01T03:34:14.239Z,33.13
2022-12-01T03:36:48.180Z,34.15
2022-12-01T03:39:25.250Z,33.58
2022-12-01T03:42:01.694Z,33.20
2022-12-01T03:44:39.088Z,32.25
2022-12-01T03:47:35.673Z,29.20
2022-12-01T03:50:04.810Z,31.40
2022-12-01T03:52:47.929Z,32.05
2022-12-01T03:55:24.765Z,31.23
2022-12-01T03:57:55.943Z,32.38
2022-12-01T04:00:24.377Z,32.65
2022-12-01T04:02:59.455Z,29.75
2022-12-01T04:05:27.335Z,32.67
2022-12-01T04:07:54.878Z,29.15
2022-12-01T04:10:22.365Z,29.58
2022-12-01T04:12:49.814Z,28.75
2022-12-01T04:15:17.130Z,30.63
2022-12-01T04:17:44.999Z,31.20
2022-12-01T04:20:14.890Z,31.05
2022-12-01T04:22:42.899Z,31.40
2022-12-01T04:25:13.401Z,30.67
2022-12-01T04:27:40.748Z,29.60
2022-12-01T04:30:08.590Z,29.98
2022-12-01T04:32:40.512Z,27.40
2022-12-01T04:35:09.962Z,29.08
2022-12-01T04:37:37.383Z,28.77
2022-12-01T04:40:05.855Z,27.73
2022-12-01T04:42:33.159Z,29.83
2022-12-01T04:45:00.423Z,29.60
2022-12-01T04:47:27.727Z,28.52
2022-12-01T04:49:55.069Z,29.65
2022-12-01T04:52:22.322Z,25.85
2022-12-01T04:54:49.593Z,25.42
2022-12-01T04:57:16.824Z,25.60
2022-12-01T04:59:44.073Z,26.52
2022-12-01T05:02:11.394Z,24.27
2022-12-01T05:04:41.385Z,25.85
2022-12-01T05:07:09.033Z,25.45
2022-12-01T05:09:36.382Z,25.52
2022-12-01T05:12:03.764Z,26.17
2022-12-01T05:14:31.019Z,24.65
2022-12-01T05:16:59.777Z,24.55
2022-12-01T05:19:45.758Z,22.98
2022-12-01T05:22:13.095Z,23.67
2022-12-01T05:24:40.286Z,26.20
2022-12-01T05:27:07.574Z,23.85
2022-12-01T05:29:35.781Z,23.70
2022-12-01T05:32:03.710Z,23.73
2022-12-01T05:34:31.054Z,22.52
2022-12-01T05:36:58.283Z,26.15
2022-12-01T05:39:25.538Z,22.75
2022-12-01T05:41:53.830Z,20.92
2022-12-01T05:44:21.195Z,20.40
2022-12-01T05:46:48.498Z,21.90
2022-12-01T05:49:15.935Z,22.83
2022-12-01T05:51:44.255Z,21.67
2022-12-01T05:54:11.551Z,22.38
2022-12-01T05:56:38.851Z,22.20
2022-12-01T05:59:06.146Z,22.15
2022-12-01T06:01:33.501Z,24.38
2022-12-01T06:04:00.968Z,23.88
2022-12-01T06:06:28.214Z,23.67
2022-12-01T06:08:55.522Z,24.27
2022-12-01T06:11:22.779Z,25.38
2022-12-01T06:13:50.001Z,23.63
2022-12-01T06:16:17.308Z,24.90
2022-12-01T06:18:44.636Z,24.13
2022-12-01T06:21:11.936Z,25.85
2022-12-01T06:23:39.216Z,26.50
2022-12-01T06:26:06.640Z,25.25
2022-12-01T06:28:33.862Z,24.40
2022-12-01T06:31:03.430Z,25.02
2022-12-01T06:33:31.954Z,26.27
2022-12-01T06:36:01.118Z,25.13
2022-12-01T06:38:33.619Z,24.30
2022-12-01T06:41:01.712Z,23.20
2022-12-01T06:43:29.074Z,24.90
2022-12-01T06:46:01.550Z,23.95
2022-12-01T06:48:30.508Z,22.70
2022-12-01T06:50:58.939Z,24.17
2022-12-01T06:53:29.195Z,21.63
2022-12-01T06:56:04.378Z,23.00
2022-12-01T06:58:32.384Z,21.63
2022-12-01T07:01:00.286Z,21.00
2022-12-01T07:03:27.661Z,21.45
2022-12-01T07:05:59.353Z,21.23
2022-12-01T07:08:31.098Z,22.20
2022-12-01T07:11:07.424Z,20.10
2022-12-01T07:13:35.692Z,21.23
2022-12-01T07:16:04.056Z,22.40
2022-12-01T07:18:32.926Z,20.55
2022-12-01T07:21:07.043Z,19.55
2022-12-01T07:23:35.180Z,19.85
2022-12-01T07:26:09.719Z,21.38
2022-12-01T07:28:37.030Z,21.55
2022-12-01T07:31:06.922Z,21.42
2022-12-01T07:33:34.739Z,21.23
2022-12-01T07:36:02.458Z,19.90
2022-12-01T07:38:31.138Z,20.48
2022-12-01T07:41:07.454Z,21.65
2022-12-01T07:43:35.057Z,19.77
2022-12-01T07:46:20.295Z,19.85
2022-12-01T07:48:50.324Z,21.48
2022-12-01T07:51:18.022Z,19.58
2022-12-01T07:53:47.065Z,20.85
2022-12-01T07:56:14.400Z,23.67
2022-12-01T07:58:42.499Z,23.50
2022-12-01T08:01:40.322Z,22.98
2022-12-01T08:04:11.668Z,24.33
2022-12-01T08:06:39.043Z,24.90
2022-12-01T08:09:06.341Z,23.90
2022-12-01T08:11:33.648Z,22.52
2022-12-01T08:14:00.926Z,24.38
2022-12-01T08:16:28.318Z,23.38
2022-12-01T08:19:08.128Z,23.50
2022-12-01T08:21:37.405Z,23.00
2022-12-01T08:24:05.319Z,25.85
2022-12-01T08:26:33.001Z,27.13
2022-12-01T08:29:00.300Z,29.80
2022-12-01T08:31:31.196Z,26.98
2022-12-01T08:33:58.862Z,26.75
2022-12-01T08:36:26.765Z,26.63
2022-12-01T08:38:55.776Z,23.95
2022-12-01T08:41:24.613Z,24.70
2022-12-01T08:44:00.064Z,26.83
2022-12-01T08:46:32.383Z,27.30
2022-12-01T08:48:59.977Z,28.65
2022-12-01T08:51:27.584Z,28.67
2022-12-01T08:53:57.230Z,30.25
2022-12-01T08:56:30.917Z,31.38
2022-12-01T08:58:58.996Z,31.53
2022-12-01T09:01:26.923Z,32.42
2022-12-01T09:04:05.865Z,31.90
2022-12-01T09:06:38.849Z,32.30
2022-12-01T09:09:06.989Z,32.55
2022-12-01T09:11:34.313Z,29.92
2022-12-01T09:14:01.599Z,31.45
2022-12-01T09:16:28.982Z,30.98
2022-12-01T09:18:56.420Z,31.02
2022-12-01T09:21:30.318Z,32.60
2022-12-01T09:23:57.934Z,30.77
2022-12-01T09:26:25.712Z,31.40
2022-12-01T09:28:55.356Z,29.90
2022-12-01T09:31:25.823Z,29.77
2022-12-01T09:34:01.405Z,28.85
2022-12-01T09:36:30.486Z,29.58
2022-12-01T09:38:58.649Z,29.50
2022-12-01T09:41:50.897Z,27.55
2022-12-01T09:44:53.237Z,28.17
2022-12-01T09:47:30.697Z,29.33
2022-12-01T09:50:06.848Z,30.33
2022-12-01T09:52:49.904Z,28.55
2022-12-01T09:55:20.136Z,32.35
2022-12-01T09:57:49.212Z,30.73
2022-12-01T10:00:38.242Z,31.55
2022-12-01T10:03:27.803Z,27.40
2022-12-01T10:06:28.488Z,32.15
2022-12-01T10:09:22.702Z,32.75
2022-12-01T10:11:54.890Z,34.13
2022-12-01T10:14:22.388Z,27.73
2022-12-01T10:17:05.507Z,31.83
2022-12-01T10:19:38.564Z,30.50
2022-12-01T10:22:14.848Z,29.88
2022-12-01T10:25:20.107Z,29.90
2022-12-01T10:27:59.438Z,28.95
2022-12-01T10:30:27.011Z,29.17
2022-12-01T10:32:56.137Z,26.63
2022-12-01T10:35:29.108Z,27.75
2022-12-01T10:38:02.573Z,25.63
2022-12-01T10:40:34.512Z,27.00
2022-12-01T10:43:02.579Z,25.98
2022-12-01T10:45:37.122Z,28.27
2022-12-01T10:48:22.686Z,25.65
2022-12-01T10:50:56.251Z,26.98
2022-12-01T10:53:23.456Z,23.90
2022-12-01T10:56:10.950Z,22.85
2022-12-01T10:59:42.898Z,23.00
2022-12-01T11:02:20.881Z,22.30
2022-12-01T11:05:01.259Z,21.73
2022-12-01T11:07:34.985Z,23.92
2022-12-01T11:10:15.085Z,22.73
2022-12-01T11:12:45.102Z,24.38
2022-12-01T11:15:31.074Z,22.58
2022-12-01T11:18:06.257Z,24.90
2022-12-01T11:20:35.202Z,22.30
2022-12-01T11:23:21.020Z,22.27
2022-12-01T11:26:09.266Z,20.38
2022-12-01T11:28:40.410Z,22.25
2022-12-01T11:31:11.966Z,23.17
2022-12-01T11:33:59.616Z,21.67
2022-12-01T11:36:45.816Z,21.92
2022-12-01T11:39:33.898Z,21.27
2022-12-01T11:42:18.548Z,20.92
2022-12-01T11:50:30.908Z,22.02
2022-12-01T11:52:58.333Z,24.65
2022-12-01T11:55:28.283Z,21.77
2022-12-01T11:58:02.811Z,21.48
2022-12-01T12:00:53.596Z,21.65
2022-12-01T12:03:33.220Z,21.65
2022-12-01T12:09:31.672Z,20.88
2022-12-01T12:11:58.867Z,24.33
2022-12-01T12:14:43.205Z,24.30
2022-12-01T12:17:25.586Z,24.15
2022-12-01T12:20:08.914Z,21.15
2022-12-01T12:23:05.859Z,22.98
2022-12-01T12:26:07.478Z,21.27
2022-12-01T12:28:53.295Z,22.05
2022-12-01T12:31:28.527Z,23.50
2022-12-01T12:34:06.234Z,21.67
2022-12-01T12:36:59.442Z,21.90
2022-12-01T12:39:42.340Z,20.38
2022-12-01T12:42:33.319Z,22.33
2022-12-01T12:45:13.933Z,23.45
2022-12-01T12:47:41.124Z,21.95
2022-12-01T12:50:55.502Z,21.98
2022-12-01T12:53:27.722Z,23.73
2022-12-01T12:55:59.946Z,24.05
2022-12-01T12:58:38.553Z,24.40
2022-12-01T13:01:23.989Z,25.88
2022-12-01T13:04:07.477Z,24.23
2022-12-01T13:06:43.299Z,24.63
2022-12-01T13:09:28.932Z,23.25
2022-12-01T13:12:10.305Z,24.48
2022-12-01T13:14:41.311Z,22.50
2022-12-01T13:17:30.294Z,22.35
2022-12-01T13:19:57.607Z,22.10
2022-12-01T13:22:31.888Z,22.48
2022-12-01T13:24:59.436Z,20.98
2022-12-01T13:27:32.981Z,23.95
2022-12-01T13:30:01.108Z,23.75
2022-12-01T13:32:37.720Z,24.25
2022-12-01T13:35:20.957Z,22.55
2022-12-01T13:37:48.773Z,21.63
2022-12-01T13:40:24.910Z,21.30
2022-12-01T13:43:05.510Z,21.08
2022-12-01T13:45:38.248Z,21.83
2022-12-01T13:48:25.143Z,20.63
2022-12-01T13:51:02.909Z,20.98
2022-12-01T13:53:32.979Z,20.00
2022-12-01T13:56:03.266Z,21.08
2022-12-01T13:58:33.589Z,18.83
2022-12-01T14:01:19.589Z,20.42
2022-12-01T14:04:03.201Z,21.13
2022-12-01T14:06:49.278Z,19.77
2022-12-01T14:09:36.592Z,21.63
2022-12-01T14:12:14.752Z,21.33
2022-12-01T14:14:57.050Z,22.75
2022-12-01T14:17:26.569Z,20.20
2022-12-01T14:19:54.492Z,21.70
2022-12-01T14:22:43.832Z,21.85
2022-12-01T14:25:20.228Z,21.48
2022-12-01T14:27:56.279Z,21.98
2022-12-01T14:30:41.554Z,21.77
2022-12-01T14:33:39.951Z,20.63
2022-12-01T14:36:29.197Z,22.35
2022-12-01T14:38:59.553Z,23.25
2022-12-01T14:42:00.414Z,20.70
2022-12-01T14:44:36.484Z,23.40
2022-12-01T14:47:23.536Z,22.17
2022-12-01T14:50:01.368Z,21.45
2022-12-01T14:52:30.584Z,22.23
2022-12-01T14:55:00.489Z,23.95
2022-12-01T14:57:38.450Z,22.50
2022-12-01T15:00:10.970Z,25.58
2022-12-01T15:02:58.853Z,23.27
2022-12-01T15:05:29.047Z,25.70
2022-12-01T15:08:18.745Z,25.92
2022-12-01T15:10:53.064Z,25.52
2022-12-01T15:13:27.800Z,25.17
2022-12-01T15:15:59.251Z,24.42
2022-12-01T15:18:32.441Z,26.60
2022-12-01T15:21:09.348Z,26.10
2022-12-01T15:23:37.322Z,24.70
2022-12-01T15:26:04.792Z,24.35
2022-12-01T15:28:35.020Z,25.98
2022-12-01T15:31:11.212Z,24.98
2022-12-01T15:33:47.264Z,24.90
2022-12-01T15:36:14.945Z,25.33
2022-12-01T15:38:45.807Z,24.77
2022-12-01T15:41:34.855Z,28.02
2022-12-01T15:44:03.530Z,24.80
2022-12-01T15:46:34.166Z,25.15
2022-12-01T15:49:18.002Z,27.02
2022-12-01T15:51:47.764Z,28.20
2022-12-01T15:54:24.354Z,28.65
2022-12-01T15:56:54.846Z,27.13
2022-12-01T15:59:33.579Z,28.52
2022-12-01T16:02:12.651Z,27.40
2022-12-01T16:04:39.996Z,30.17
2022-12-01T16:07:09.834Z,29.60
2022-12-01T16:09:38.311Z,31.92
2022-12-01T16:12:23.701Z,28.25
2022-12-01T16:15:00.293Z,31.48
2022-12-01T16:17:47.831Z,33.33
2022-12-01T16:20:25.574Z,31.70
2022-12-01T16:22:59.190Z,33.20
2022-12-01T16:25:43.538Z,31.85
2022-12-01T16:28:37.236Z,33.17
2022-12-01T16:31:05.990Z,32.58
2022-12-01T16:33:38.511Z,31.65
2022-12-01T16:36:06.257Z,33.88
2022-12-01T16:38:33.527Z,33.65
2022-12-01T16:41:02.515Z,32.83
2022-12-01T16:43:29.992Z,36.85
2022-12-01T16:46:03.214Z,35.10
2022-12-01T16:48:31.232Z,36.67
2022-12-01T16:51:03.423Z,35.17
2022-12-01T16:53:31.008Z,34.85
2022-12-01T16:56:02.353Z,35.58
2022-12-01T16:58:29.775Z,33.42
2022-12-01T17:00:57.547Z,36.55
2022-12-01T17:03:27.624Z,35.25
2022-12-01T17:05:55.212Z,36.45
2022-12-01T17:08:22.868Z,37.30
2022-12-01T17:10:51.518Z,36.10
2022-12-01T17:13:21.576Z,36.97
2022-12-01T17:15:50.776Z,36.92
2022-12-01T17:18:20.885Z,37.70
2022-12-01T17:21:04.090Z,37.17
2022-12-01T17:23:37.816Z,36.88
2022-12-01T17:26:11.186Z,37.92
2022-12-01T17:28:38.967Z,38.80
2022-12-01T17:31:07.226Z,37.58
2022-12-01T17:33:35.696Z,36.67
2022-12-01T17:36:09.850Z,35.13
2022-12-01T17:38:38.989Z,37.15
2022-12-01T17:41:12.383Z,40.67
2022-12-01T17:43:40.524Z,37.50
2022-12-01T17:46:10.246Z,39.60
2022-12-01T17:48:39.672Z,37.63
2022-12-01T17:51:07.238Z,38.72
2022-12-01T17:53:34.959Z,39.50
2022-12-01T17:56:05.631Z,41.13
2022-12-01T17:58:32.930Z,36.95
2022-12-01T18:01:00.189Z,38.67
2022-12-01T18:03:27.451Z,40.05
2022-12-01T18:05:59.871Z,39.03
2022-12-01T18:08:29.607Z,39.83
2022-12-01T18:11:02.044Z,37.72
2022-12-01T18:13:29.754Z,37.65
2022-12-01T18:15:57.210Z,39.08
2022-12-01T18:18:24.586Z,40.97
2022-12-01T18:20:51.843Z,39.60
2022-12-01T18:23:19.253Z,37.63
2022-12-01T18:25:46.516Z,38.90
2022-12-01T18:28:13.743Z,38.30
2022-12-01T18:30:41.460Z,39.83
2022-12-01T18:33:12.248Z,37.75
2022-12-01T18:35:44.475Z,38.53
2022-12-01T18:38:11.850Z,40.40
2022-12-01T18:40:39.147Z,40.58
2022-12-01T18:43:06.501Z,37.45
2022-12-01T18:45:38.822Z,39.10
2022-12-01T18:48:06.467Z,40.03
2022-12-01T18:50:34.730Z,39.13
2022-12-01T18:53:02.026Z,39.70
2022-12-01T18:55:29.287Z,40.50
2022-12-01T18:57:56.591Z,40.00
2022-12-01T19:00:23.900Z,40.85
2022-12-01T19:02:51.717Z,38.65
2022-12-01T19:05:19.048Z,39.75
2022-12-01T19:07:46.375Z,40.88
2022-12-01T19:10:13.879Z,39.97
2022-12-01T19:12:41.405Z,41.05
2022-12-01T19:15:09.451Z,40.85
2022-12-01T19:17:36.768Z,38.45
2022-12-01T19:20:05.060Z,37.25
2022-12-01T19:22:32.557Z,38.08
2022-12-01T19:25:00.010Z,40.67
2022-12-01T19:27:29.159Z,37.60
2022-12-01T19:29:56.479Z,39.72
2022-12-01T19:32:23.946Z,37.28
2022-12-01T19:34:51.441Z,39.42
2022-12-01T19:37:19.948Z,38.90
2022-12-01T19:39:47.226Z,37.30
2022-12-01T19:42:14.469Z,38.85
2022-12-01T19:44:42.048Z,39.40
2022-12-01T19:47:10.096Z,41.40
2022-12-01T19:49:37.571Z,35.78
2022-12-01T19:52:08.023Z,40.00
2022-12-01T19:54:37.586Z,39.13
2022-12-01T19:57:04.909Z,40.65
2022-12-01T19:59:32.208Z,37.13
2022-12-01T20:01:59.564Z,39.58
2022-12-01T20:04:26.886Z,38.20
2022-12-01T20:06:54.207Z,39.72
2022-12-01T20:09:22.590Z,37.17
2022-12-01T20:11:49.979Z,38.83
2022-12-01T20:14:17.230Z,39.20
2022-12-01T20:16:44.547Z,38.45
2022-12-01T20:19:12.199Z,37.58
2022-12-01T20:21:43.011Z,38.08
2022-12-01T20:24:18.532Z,37.80
2022-12-01T20:26:52.223Z,37.17
2022-12-01T20:29:26.385Z,39.20
2022-12-01T20:31:56.201Z,37.75
2022-12-01T20:34:30.326Z,38.55
2022-12-01T20:36:57.792Z,39.15
2022-12-01T20:39:25.274Z,40.25
2022-12-01T20:41:53.057Z,39.53
2022-12-01T20:44:20.521Z,36.95
2022-12-01T20:46:48.291Z,40.13
2022-12-01T20:49:17.179Z,39.47
2022-12-01T20:51:44.526Z,35.92
2022-12-01T20:54:30.188Z,32.47
2022-12-01T20:56:58.315Z,36.40
2022-12-01T20:59:25.686Z,35.47
2022-12-01T21:01:53.130Z,35.38
2022-12-01T21:04:20.573Z,36.03
2022-12-01T21:06:49.836Z,33.60
2022-12-01T21:09:18.021Z,34.13
2022-12-01T21:12:08.970Z,32.75
2022-12-01T21:14:38.153Z,32.78
2022-12-01T21:17:29.784Z,33.35
2022-12-01T21:20:21.988Z,30.58
2022-12-01T21:22:51.006Z,30.52
2022-12-01T21:25:22.215Z,31.05
2022-12-01T21:27:50.047Z,30.17
2022-12-01T21:30:25.697Z,32.08
2022-12-01T21:32:54.122Z,28.85
2022-12-01T21:35:24.742Z,27.80
2022-12-01T21:38:01.551Z,28.85
2022-12-01T21:40:28.873Z,30.08
2022-12-01T21:43:01.357Z,29.02
2022-12-01T21:45:31.120Z,30.85
2022-12-01T21:48:18.098Z,29.45
2022-12-01T21:50:49.365Z,31.05
2022-12-01T21:53:21.453Z,31.48
2022-12-01T21:55:49.310Z,27.65
2022-12-01T21:58:30.148Z,29.73
2022-12-01T22:00:59.004Z,29.92
2022-12-01T22:03:30.605Z,28.25
2022-12-01T22:06:29.389Z,30.27
2022-12-01T22:09:10.999Z,28.25
2022-12-01T22:11:38.293Z,29.70
2022-12-01T22:14:08.614Z,28.98
2022-12-01T22:16:57.338Z,29.77
2022-12-01T22:19:56.844Z,26.70
2022-12-01T22:22:29.216Z,28.13
2022-12-01T22:25:22.574Z,29.02
2022-12-01T22:27:49.891Z,28.40
2022-12-01T22:30:20.914Z,28.05
2022-12-01T22:32:54.063Z,28.55
2022-12-01T22:35:28.220Z,29.10
2022-12-01T22:38:24.911Z,28.85
2022-12-01T22:40:56.437Z,27.73
2022-12-01T22:43:25.435Z,28.08
2022-12-01T22:46:17.089Z,28.88
2022-12-01T22:48:47.332Z,29.30
2022-12-01T22:51:20.496Z,28.63
2022-12-01T22:53:48.773Z,28.88
2022-12-01T22:56:30.965Z,30.20
2022-12-01T22:58:58.325Z,28.55
2022-12-01T23:01:29.903Z,27.92
2022-12-01T23:04:21.827Z,30.65
2022-12-01T23:06:54.617Z,28.30
2022-12-01T23:09:26.287Z,28.25
2022-12-01T23:12:04.265Z,28.90
2022-12-01T23:14:33.520Z,26.50
2022-12-01T23:17:07.829Z,28.35
2022-12-01T23:19:35.500Z,27.50
2022-12-01T23:22:02.813Z,26.85
2022-12-01T23:24:33.831Z,26.77
2022-12-01T23:27:02.009Z,24.48
2022-12-01T23:29:30.261Z,23.05
2022-12-01T23:31:57.532Z,25.83
2022-12-01T23:34:24.853Z,25.65
2022-12-01T23:36:52.582Z,26.48
2022-12-01T23:39:27.350Z,25.30
2022-12-01T23:41:54.701Z,24.30
2022-12-01T23:44:39.277Z,26.38
2022-12-01T23:47:41.464Z,25.27
2022-12-01T23:50:21.846Z,24.05
2022-12-01T23:52:49.202Z,24.33
2022-12-01T23:55:27.231Z,24.10
2022-12-01T23:57:55.284Z,23.25
